createdAt,value
2023-01-07T00:03:32.385Z,12.20
2023-01-07T00:08:39.451Z,13.70
2023-01-07T00:13:46.330Z,16.13
2023-01-07T00:18:53.492Z,17.20
2023-01-07T00:24:03.152Z,19.50
2023-01-07T00:29:06.096Z,22.50
2023-01-07T00:34:09.551Z,26.43
2023-01-07T00:39:29.541Z,27.43
2023-01-07T00:44:31.903Z,28.97
2023-01-07T00:49:33.624Z,31.13
2023-01-07T00:54:42.699Z,31.80
2023-01-07T00:59:46.783Z,32.70
2023-01-07T01:04:51.735Z,33.13
2023-01-07T01:09:53.482Z,34.77
2023-01-07T01:15:00.257Z,36.30
2023-01-07T01:20:06.551Z,38.23
2023-01-07T01:25:13.376Z,38.63
2023-01-07T01:30:17.581Z,37.83
2023-01-07T01:35:21.930Z,39.90
2023-01-07T01:40:29.570Z,38.97
2023-01-07T01:45:31.356Z,41.47
2023-01-07T01:50:38.582Z,42.93
2023-01-07T01:55:49.565Z,44.53
2023-01-07T02:00:56.074Z,43.93
2023-01-07T02:06:00.579Z,45.67
2023-01-07T02:11:21.616Z,46.73
2023-01-07T02:16:35.949Z,47.43
2023-01-07T02:22:04.814Z,46.80
2023-01-07T02:27:14.129Z,46.27
2023-01-07T02:32:28.648Z,47.43
2023-01-07T02:38:14.158Z,49.83
2023-01-07T02:43:41.110Z,47.00
2023-01-07T02:48:45.704Z,46.27
2023-01-07T02:53:48.864Z,48.50
2023-01-07T02:59:07.317Z,48.10
2023-01-07T03:04:19.753Z,46.97
2023-01-07T03:09:41.684Z,46.00
2023-01-07T03:14:54.776Z,49.27
2023-01-07T03:20:04.552Z,50.43
2023-01-07T03:25:07.294Z,49.70
2023-01-07T03:30:14.902Z,50.40
2023-01-07T03:35:23.705Z,50.30
2023-01-07T03:40:29.844Z,49.73
2023-01-07T03:45:36.622Z,48.47
2023-01-07T03:50:38.923Z,48.70
2023-01-07T03:55:43.930Z,50.27
2023-01-07T04:00:45.738Z,46.97
2023-01-07T04:05:53.703Z,45.77
2023-01-07T04:11:01.186Z,43.73
2023-01-07T04:16:10.549Z,46.27
2023-01-07T04:21:13.277Z,39.00
2023-01-07T04:26:17.036Z,44.53
2023-01-07T04:31:23.772Z,42.20
2023-01-07T04:36:31.914Z,39.70
2023-01-07T04:41:38.841Z,42.97
2023-01-07T04:46:40.606Z,40.80
2023-01-07T04:51:43.636Z,40.87
2023-01-07T04:56:45.826Z,41.27
2023-01-07T05:01:51.124Z,41.37
2023-01-07T05:06:53.116Z,40.50
2023-01-07T05:11:56.097Z,42.67
2023-01-07T05:17:00.858Z,40.97
2023-01-07T05:22:07.418Z,36.37
2023-01-07T05:27:16.416Z,36.70
2023-01-07T05:32:20.707Z,35.57
2023-01-07T05:37:29.536Z,35.63
2023-01-07T05:42:35.478Z,33.17
2023-01-07T05:47:37.553Z,34.17
2023-01-07T05:52:40.215Z,34.50
2023-01-07T05:57:41.921Z,33.93
2023-01-07T06:02:44.848Z,33.47
2023-01-07T06:07:47.102Z,31.73
2023-01-07T06:12:51.417Z,31.83
2023-01-07T06:17:53.413Z,28.60
2023-01-07T06:22:55.415Z,27.27
2023-01-07T06:28:00.082Z,30.37
2023-01-07T06:33:05.577Z,27.63
2023-01-07T06:38:07.492Z,27.53
2023-01-07T06:43:10.421Z,26.03
2023-01-07T06:48:15.171Z,25.47
2023-01-07T06:53:21.826Z,25.80
2023-01-07T06:58:23.550Z,21.87
2023-01-07T07:03:30.200Z,21.20
2023-01-07T07:08:34.217Z,20.00
2023-01-07T07:13:36.322Z,17.73
2023-01-07T07:18:38.032Z,20.27
2023-01-07T07:23:43.243Z,18.00
2023-01-07T07:28:45.092Z,17.70
2023-01-07T07:33:51.373Z,13.67
2023-01-07T07:38:57.664Z,14.73
2023-01-07T07:44:02.288Z,15.50
2023-01-07T07:49:06.585Z,14.23
2023-01-07T07:54:13.512Z,14.53
2023-01-07T07:59:15.258Z,14.33
2023-01-07T08:04:19.383Z,12.60
2023-01-07T08:09:23.672Z,12.77
2023-01-07T08:14:26.210Z,12.77
2023-01-07T08:19:29.689Z,11.90
2023-01-07T08:24:31.441Z,12.13
2023-01-07T08:29:33.543Z,9.13
2023-01-07T08:34:35.439Z,10.57
2023-01-07T08:39:37.513Z,9.87
2023-01-07T08:44:39.542Z,10.20
2023-01-07T08:49:43.455Z,8.87
2023-01-07T08:54:48.102Z,10.07
2023-01-07T08:59:51.283Z,9.30
2023-01-07T09:04:53.090Z,8.67
2023-01-07T09:09:56.520Z,7.80
2023-01-07T09:14:59.290Z,8.00
2023-01-07T09:20:03.785Z,8.53
2023-01-07T09:25:13.693Z,8.40
2023-01-07T09:30:18.259Z,8.20
2023-01-07T09:35:23.038Z,7.93
2023-01-07T09:40:31.729Z,8.20
2023-01-07T09:45:41.399Z,7.60
2023-01-07T09:50:52.624Z,7.10
2023-01-07T09:56:11.422Z,7.03
2023-01-07T10:01:40.861Z,7.82
2023-01-07T10:06:45.424Z,7.47
2023-01-07T10:12:31.456Z,7.90
2023-01-07T10:17:59.015Z,7.90
2023-01-07T10:23:15.761Z,7.60
2023-01-07T10:28:28.217Z,7.83
2023-01-07T10:33:34.494Z,6.50
2023-01-07T10:38:43.444Z,6.73
2023-01-07T10:43:56.999Z,5.70
2023-01-07T10:49:04.993Z,5.00
2023-01-07T10:54:25.192Z,5.72
2023-01-07T10:59:31.192Z,5.65
2023-01-07T11:04:35.632Z,5.43
2023-01-07T11:09:42.278Z,7.87
2023-01-07T11:14:46.943Z,4.20
2023-01-07T11:19:52.230Z,4.13
2023-01-07T11:24:58.307Z,4.03
2023-01-07T11:30:21.982Z,3.80
2023-01-07T11:35:24.194Z,3.38
2023-01-07T11:40:31.726Z,3.53
2023-01-07T11:46:19.283Z,3.10
2023-01-07T11:51:27.621Z,2.67
2023-01-07T11:56:34.059Z,2.50
2023-01-07T12:01:43.500Z,2.50
2023-01-07T12:06:50.026Z,2.40
2023-01-07T12:11:56.426Z,2.30
2023-01-07T12:17:18.810Z,2.00
2023-01-07T12:22:58.440Z,2.08
2023-01-07T12:28:18.918Z,2.30
2023-01-07T12:33:26.810Z,2.80
2023-01-07T12:38:43.117Z,2.20
2023-01-07T12:43:57.806Z,2.00
2023-01-07T12:49:06.569Z,2.10
2023-01-07T12:54:38.787Z,2.10
2023-01-07T12:59:48.483Z,1.77
2023-01-07T13:04:58.704Z,1.83
2023-01-07T13:10:04.027Z,2.00
2023-01-07T13:15:30.108Z,2.13
2023-01-07T13:20:44.840Z,1.60
2023-01-07T13:26:00.795Z,1.50
2023-01-07T13:31:31.126Z,1.70
2023-01-07T13:36:33.964Z,1.63
2023-01-07T13:42:09.386Z,1.73
2023-01-07T13:47:14.993Z,1.53
2023-01-07T13:52:24.599Z,1.83
2023-01-07T13:57:31.168Z,1.60
2023-01-07T14:02:58.289Z,1.70
2023-01-07T14:08:04.540Z,2.00
2023-01-07T14:13:33.145Z,1.50
2023-01-07T14:18:58.997Z,1.47
2023-01-07T14:24:18.772Z,1.83
2023-01-07T14:29:45.789Z,1.40
2023-01-07T14:35:00.099Z,2.80
2023-01-07T14:40:40.523Z,2.50
2023-01-07T14:45:42.436Z,3.30
2023-01-07T14:50:54.771Z,4.03
2023-01-07T14:56:08.660Z,4.00
2023-01-07T15:06:41.935Z,2.97
2023-01-07T15:12:04.455Z,2.73
2023-01-07T15:17:13.070Z,2.37
2023-01-07T15:22:33.593Z,2.60
2023-01-07T15:27:59.819Z,2.33
2023-01-07T15:33:14.549Z,2.10
2023-01-07T15:38:46.837Z,2.17
2023-01-07T15:43:49.452Z,1.83
2023-01-07T15:49:27.888Z,2.30
2023-01-07T15:54:34.930Z,2.30
2023-01-07T15:59:43.033Z,1.80
2023-01-07T16:04:48.388Z,3.00
2023-01-07T16:09:52.794Z,2.90
2023-01-07T16:15:31.033Z,2.37
2023-01-07T16:20:35.806Z,2.10
2023-01-07T16:25:47.480Z,2.20
2023-01-07T16:30:53.807Z,2.00
2023-01-07T16:35:58.939Z,2.20
2023-01-07T16:41:05.974Z,2.20
2023-01-07T16:46:22.710Z,2.47
2023-01-07T16:51:54.089Z,2.90
2023-01-07T16:57:04.138Z,2.97
2023-01-07T17:02:18.028Z,3.30
2023-01-07T17:07:28.735Z,3.47
2023-01-07T17:12:40.150Z,3.43
2023-01-07T17:17:41.996Z,3.53
2023-01-07T17:22:45.997Z,4.27
2023-01-07T17:27:56.545Z,3.30
2023-01-07T17:33:00.661Z,3.60
2023-01-07T17:38:12.795Z,3.43
2023-01-07T17:43:35.310Z,4.77
2023-01-07T17:48:39.810Z,4.03
2023-01-07T17:53:46.679Z,4.23
2023-01-07T17:58:51.230Z,3.23
2023-01-07T18:03:54.176Z,4.30
2023-01-07T18:08:57.426Z,3.60
2023-01-07T18:13:59.947Z,3.20
2023-01-07T18:19:03.998Z,2.90
2023-01-07T18:24:12.448Z,3.57
2023-01-07T18:29:16.429Z,5.40
2023-01-07T18:34:20.468Z,6.63
2023-01-07T18:39:22.409Z,7.90
2023-01-07T18:44:28.856Z,6.60
2023-01-07T18:49:34.127Z,4.23
2023-01-07T18:54:38.077Z,3.73
2023-01-07T18:59:44.784Z,6.80
2023-01-07T19:04:48.416Z,4.47
2023-01-07T19:09:50.233Z,9.37
2023-01-07T19:14:56.995Z,5.77
2023-01-07T19:19:58.743Z,6.70
2023-01-07T19:25:01.182Z,5.33
2023-01-07T19:30:05.755Z,5.93
2023-01-07T19:35:12.620Z,4.17
2023-01-07T19:40:18.820Z,4.40
2023-01-07T19:45:20.568Z,4.37
2023-01-07T19:50:27.215Z,3.80
2023-01-07T19:55:29.012Z,3.60
2023-01-07T20:00:35.974Z,3.00
2023-01-07T20:05:41.534Z,2.70
2023-01-07T20:10:46.812Z,3.30
2023-01-07T20:15:48.647Z,3.03
2023-01-07T20:21:01.337Z,8.50
2023-01-07T20:26:07.750Z,3.23
2023-01-07T20:31:14.541Z,3.03
2023-01-07T20:36:27.086Z,3.33
2023-01-07T20:41:28.847Z,3.40
2023-01-07T20:46:31.511Z,3.47
2023-01-07T20:51:36.834Z,3.50
2023-01-07T20:56:38.766Z,3.53
2023-01-07T21:01:43.086Z,3.73
2023-01-07T21:06:46.141Z,3.73
2023-01-07T21:11:50.070Z,3.90
2023-01-07T21:16:56.639Z,4.17
2023-01-07T21:22:01.212Z,4.50
2023-01-07T21:27:05.329Z,4.40
2023-01-07T21:32:07.019Z,4.77
2023-01-07T21:37:11.162Z,5.20
2023-01-07T21:42:17.646Z,4.57
2023-01-07T21:47:21.476Z,4.30
2023-01-07T21:52:23.864Z,3.97
2023-01-07T21:57:28.114Z,3.70
2023-01-07T22:02:32.415Z,3.83
2023-01-07T22:07:34.420Z,4.28
2023-01-07T22:12:42.401Z,4.07
2023-01-07T22:17:48.243Z,3.90
2023-01-07T22:22:52.847Z,4.10
2023-01-07T22:28:02.170Z,4.17
2023-01-07T22:33:06.900Z,4.50
2023-01-07T22:38:11.868Z,5.57
2023-01-07T22:43:19.838Z,4.00
2023-01-07T22:48:27.334Z,5.40
2023-01-07T22:53:30.231Z,5.13
2023-01-07T22:58:32.096Z,3.60
2023-01-07T23:03:39.032Z,4.00
2023-01-07T23:08:41.924Z,4.03
2023-01-07T23:13:48.153Z,3.50
2023-01-07T23:18:54.560Z,3.53
2023-01-07T23:23:59.093Z,3.30
2023-01-07T23:29:00.926Z,3.33
2023-01-07T23:34:08.176Z,3.37
2023-01-07T23:39:12.990Z,3.40
2023-01-07T23:44:14.947Z,3.40
2023-01-07T23:49:18.736Z,3.50
2023-01-07T23:54:25.276Z,3.47
2023-01-07T23:59:29.289Z,3.30
